Cheney, Kansas
Current Conditions -  °F | °C
As of 8:53 AM on Thursday 23 Oct 2014 (Local Time) from KICT Reporting Station
Overcast Overcast  
Wind Chill: 62°   Ceiling: 2600
Heat Index: 62°   Visibility: 7mi
Dew Point: 59°   Wind: 7mph
Humidity: 90%   Direction: 190°S
Pressure: 30.09"   Gusts: NA
Location:  37.63°N, 97.78°W
Report Text: KICT 231353Z 19006KT 7SM FEW015 BKN026 OVC040 17/15 A3009 RMK AO2 SLP183 T01670150
Loading
Personal Weather Stations






























Interactive Weather Map
Tropical Storm Tracking
New forecast layout! Learn more

10-Day Weather Forecast

Advertisements
Track Severe Weather on mobile